Time;durP1;ratioP1;P1;durP2;ratioP2;P2;SDS_P1;SDS_P2;PMS_P1;PMS_P2;Temp;Humidity;BMP_temperature;BMP_pressure;BME280_temperature;BME280_humidity;BME280_pressure;Samples;Min_cycle;Max_cycle;Signal;HPM_P1;HPM_P2
2023/06/05 05:29:15;;;;;;;4.80;3.33;;;;;;;19.76;91.24;98746.31;5371337;22;20808;-57
2023/06/05 05:31:41;;;;;;;8.23;3.88;;;;;;;19.71;90.30;98734.66;5094138;28;20192;-58
2023/06/05 05:34:06;;;;;;;9.95;4.80;;;;;;;19.70;91.06;98741.69;5093484;28;20257;-56
2023/06/05 05:36:36;;;;;;;11.02;4.43;;;;;;;19.70;91.39;98733.00;5093581;28;20565;-56
2023/06/05 05:39:02;;;;;;;12.27;4.38;;;;;;;19.72;91.35;98741.53;5094200;28;20187;-56
2023/06/05 05:41:28;;;;;;;8.77;4.30;;;;;;;19.78;92.09;98756.69;5093203;28;20187;-56
2023/06/05 05:43:53;;;;;;;9.07;4.90;;;;;;;19.65;93.04;98733.44;5093910;28;20172;-56
2023/06/05 05:46:19;;;;;;;6.43;5.00;;;;;;;19.62;95.54;98730.31;5094164;28;20470;-56
2023/06/05 05:48:44;;;;;;;8.95;6.05;;;;;;;19.85;98.58;98753.28;5094013;28;22631;-56
2023/06/05 05:51:09;;;;;;;8.32;5.85;;;;;;;19.91;100.00;98762.34;5093837;28;20675;-56
2023/06/05 05:53:36;;;;;;;15.80;6.20;;;;;;;19.78;100.00;98735.69;5094061;28;20186;-56
2023/06/05 05:56:01;;;;;;;12.75;7.43;;;;;;;19.93;100.00;98753.34;5093896;28;20530;-56
2023/06/05 05:58:27;;;;;;;11.75;8.20;;;;;;;19.96;100.00;98747.78;5050532;28;20188;-56
2023/06/05 06:00:52;;;;;;;13.25;9.10;;;;;;;20.07;100.00;98757.22;5051229;28;20378;-56
2023/06/05 06:03:18;;;;;;;18.80;11.25;;;;;;;20.02;100.00;98744.53;5051147;28;20259;-56
2023/06/05 06:05:44;;;;;;;16.88;11.40;;;;;;;20.03;100.00;98740.09;5051159;28;20195;-56
2023/06/05 06:08:10;;;;;;;16.50;10.90;;;;;;;20.05;100.00;98741.59;5031126;28;20190;-56
2023/06/05 06:10:36;;;;;;;16.83;12.23;;;;;;;20.25;100.00;98764.06;4991627;28;20214;-56
2023/06/05 06:13:02;;;;;;;20.60;12.98;;;;;;;20.29;100.00;98762.75;4991848;28;20237;-56
2023/06/05 06:15:31;;;;;;;19.70;12.35;;;;;;;20.12;100.00;98733.94;4991745;28;20305;-56
2023/06/05 06:17:56;;;;;;;17.98;12.10;;;;;;;20.10;100.00;98733.28;4991498;28;20187;-56
2023/06/05 06:20:22;;;;;;;16.27;11.77;;;;;;;20.24;100.00;98774.72;4991498;28;20286;-56
2023/06/05 06:22:47;;;;;;;15.27;10.77;;;;;;;20.20;100.00;98755.00;4991645;28;20230;-57
2023/06/05 06:25:15;;;;;;;15.07;10.60;;;;;;;20.20;100.00;98758.47;4991575;28;20577;-57
2023/06/05 06:27:42;;;;;;;16.08;11.38;;;;;;;20.25;100.00;98756.19;4991562;28;20332;-57
2023/06/05 06:30:07;;;;;;;20.75;11.20;;;;;;;20.17;100.00;98748.25;4990891;28;20231;-57
2023/06/05 06:32:33;;;;;;;13.95;11.65;;;;;;;20.42;100.00;98772.84;4999453;28;20206;-56
2023/06/05 06:34:59;;;;;;;14.88;10.95;;;;;;;20.31;100.00;98759.97;5012497;28;20193;-56
2023/06/05 06:37:25;;;;;;;13.80;10.85;;;;;;;20.25;100.00;98744.84;5030494;28;20190;-56
2023/06/05 06:39:50;;;;;;;19.92;11.20;;;;;;;20.29;100.00;98746.19;5024870;28;20260;-58
2023/06/05 06:42:16;;;;;;;23.38;12.55;;;;;;;20.41;100.00;98763.31;5046067;28;20291;-57
2023/06/05 06:44:42;;;;;;;17.52;11.32;;;;;;;20.46;100.00;98766.31;5030469;28;20182;-57
2023/06/05 06:47:08;;;;;;;15.10;11.45;;;;;;;20.41;100.00;98739.66;5030447;28;20198;-57
2023/06/05 06:49:38;;;;;;;16.77;12.63;;;;;;;20.35;100.00;98737.66;5030436;28;20319;-57
2023/06/05 06:52:03;;;;;;;19.38;11.82;;;;;;;20.40;100.00;98738.81;5030303;28;20205;-57
2023/06/05 06:54:29;;;;;;;17.75;12.48;;;;;;;20.44;100.00;98755.09;5030377;28;20186;-57
2023/06/05 06:56:56;;;;;;;23.33;13.50;;;;;;;20.49;100.00;98761.53;5030421;28;20795;-57
2023/06/05 06:59:22;;;;;;;17.75;12.95;;;;;;;20.16;100.00;98735.28;5030268;28;20280;-57
2023/06/05 07:02:08;;;;;;;17.88;12.95;;;;;;;20.15;100.00;98736.25;5030291;28;20273;-57
2023/06/05 07:04:34;;;;;;;22.23;14.00;;;;;;;20.42;100.00;98762.34;5010752;28;20183;-57
2023/06/05 07:07:00;;;;;;;28.02;13.23;;;;;;;20.44;100.00;98760.34;5010369;28;20687;-57
2023/06/05 07:09:26;;;;;;;25.77;14.07;;;;;;;20.56;100.00;98761.72;5005399;28;20779;-57
2023/06/05 07:11:51;;;;;;;16.67;12.88;;;;;;;20.74;100.00;98762.47;5010205;28;20281;-57
2023/06/05 07:14:16;;;;;;;23.20;14.13;;;;;;;20.77;100.00;98741.91;5010127;28;20652;-57
2023/06/05 07:16:42;;;;;;;23.17;14.05;;;;;;;20.85;100.00;98759.50;5028408;28;20691;-57
2023/06/05 07:19:07;;;;;;;20.15;13.82;;;;;;;20.89;100.00;98748.56;5029733;28;20177;-57
2023/06/05 07:21:37;;;;;;;20.80;14.30;;;;;;;20.77;100.00;98731.41;5029749;28;20276;-57
2023/06/05 07:24:04;;;;;;;26.52;14.75;;;;;;;20.69;100.00;98748.97;4990617;28;20226;-57
2023/06/05 07:26:29;;;;;;;22.73;14.00;;;;;;;20.45;100.00;98746.25;4990339;28;20282;-57
2023/06/05 07:28:55;;;;;;;20.13;15.10;;;;;;;20.51;100.00;98729.84;4990320;28;20346;-57
2023/06/05 07:31:21;;;;;;;20.77;15.95;;;;;;;20.69;100.00;98722.66;4990381;28;20199;-57
2023/06/05 07:33:46;;;;;;;23.13;13.63;;;;;;;20.86;100.00;98738.31;4990629;28;20190;-57
2023/06/05 07:36:13;;;;;;;20.80;14.77;;;;;;;21.11;100.00;98755.84;4990062;28;20628;-57
2023/06/05 07:38:39;;;;;;;21.83;13.98;;;;;;;21.33;100.00;98762.28;4990424;28;20187;-57
2023/06/05 07:41:06;;;;;;;20.73;14.07;;;;;;;21.28;100.00;98749.56;4993208;28;20293;-57
2023/06/05 07:43:31;;;;;;;22.48;16.40;;;;;;;21.36;99.02;98740.88;5024845;28;20201;-57
2023/06/05 07:45:57;;;;;;;22.33;14.93;;;;;;;21.59;97.41;98760.28;5029975;28;20190;-57
2023/06/05 07:48:23;;;;;;;19.67;15.43;;;;;;;21.62;96.15;98757.34;5029443;28;20181;-57
2023/06/05 07:50:48;;;;;;;21.63;14.40;;;;;;;21.74;95.53;98777.91;5029588;28;20599;-57
2023/06/05 07:53:13;;;;;;;27.73;16.08;;;;;;;21.62;95.03;98765.25;5029548;28;20173;-57
2023/06/05 07:55:39;;;;;;;20.65;15.20;;;;;;;21.58;96.04;98748.13;5061098;28;20192;-57
2023/06/05 07:58:04;;;;;;;25.20;15.90;;;;;;;21.67;95.97;98747.13;5069557;28;20184;-57
2023/06/05 08:00:30;;;;;;;25.60;16.35;;;;;;;21.85;94.70;98764.41;5069765;28;20283;-57
2023/06/05 08:02:57;;;;;;;22.08;15.65;;;;;;;21.84;92.23;98754.03;5069535;28;20183;-57
2023/06/05 08:05:22;;;;;;;26.50;17.13;;;;;;;21.88;94.60;98765.88;5069505;28;20187;-57
2023/06/05 08:07:48;;;;;;;22.27;15.75;;;;;;;22.06;94.89;98779.69;5069487;28;20187;-57
2023/06/05 08:10:13;;;;;;;26.02;17.02;;;;;;;22.03;93.62;98780.84;5069214;28;20313;-57
2023/06/05 08:12:40;;;;;;;28.83;18.88;;;;;;;21.88;94.12;98777.25;5069525;28;20185;-57
2023/06/05 08:15:06;;;;;;;25.80;17.73;;;;;;;21.66;95.42;98748.94;5069412;28;20180;-57
2023/06/05 08:17:31;;;;;;;24.15;17.45;;;;;;;21.89;95.86;98767.53;5069452;28;20234;-57
2023/06/05 08:19:57;;;;;;;25.65;17.92;;;;;;;22.07;94.18;98773.41;5069876;28;20195;-57
2023/06/05 08:22:22;;;;;;;28.65;17.75;;;;;;;22.10;92.92;98767.81;5073499;28;20186;-57
2023/06/05 08:24:49;;;;;;;23.95;16.73;;;;;;;22.06;91.46;98764.72;5075389;28;20707;-57
2023/06/05 08:27:16;;;;;;;28.92;16.92;;;;;;;22.10;92.53;98760.75;5075468;28;20184;-57
2023/06/05 08:29:41;;;;;;;25.25;16.00;;;;;;;21.93;90.90;98742.50;5075208;28;20224;-57
2023/06/05 08:32:06;;;;;;;28.17;17.30;;;;;;;21.78;94.41;98765.22;5075353;28;20252;-57
2023/06/05 08:34:32;;;;;;;25.17;16.77;;;;;;;21.75;94.26;98728.69;5075224;28;20242;-57
2023/06/05 08:36:58;;;;;;;26.33;16.20;;;;;;;21.95;94.16;98745.78;5075200;28;20215;-57
2023/06/05 08:39:31;;;;;;;79.43;65.13;;;;;;;21.77;92.82;98724.91;5075210;28;20180;-57
2023/06/05 08:41:59;;;;;;;27.48;17.00;;;;;;;21.63;94.60;98736.06;5075085;28;20234;-57
2023/06/05 08:44:29;;;;;;;29.58;16.05;;;;;;;21.82;95.05;98733.16;5075110;28;20184;-57
2023/06/05 08:47:02;;;;;;;24.92;16.08;;;;;;;21.89;93.39;98741.19;5075352;28;20179;-57
2023/06/05 08:49:36;;;;;;;25.30;13.80;;;;;;;21.98;92.03;98714.63;5052419;28;20565;-57
2023/06/05 08:52:05;;;;;;;20.98;14.07;;;;;;;22.28;90.35;98732.34;5052642;28;20577;-57
2023/06/05 08:54:38;;;;;;;26.30;14.00;;;;;;;22.37;90.67;98720.75;5019882;28;20276;-57
2023/06/05 08:57:06;;;;;;;22.65;13.60;;;;;;;22.56;89.85;98720.38;5052626;28;20264;-57
2023/06/05 08:59:32;;;;;;;22.27;13.63;;;;;;;22.80;87.76;98730.81;5052441;28;20745;-57
2023/06/05 09:01:57;;;;;;;15.82;11.82;;;;;;;22.88;88.08;98729.94;5052601;28;20205;-57
2023/06/05 09:04:24;;;;;;;13.18;7.85;;;;;;;22.38;86.68;98718.97;5052423;28;20298;-57
2023/06/05 09:06:53;;;;;;;9.73;6.78;;;;;;;22.56;86.47;98725.66;5052324;28;20216;-57
2023/06/05 09:09:19;;;;;;;9.43;6.00;;;;;;;22.45;85.34;98723.41;5050356;28;20212;-57
2023/06/05 09:11:45;;;;;;;12.30;6.95;;;;;;;22.59;85.68;98708.66;5051452;28;20210;-57
2023/06/05 09:14:10;;;;;;;9.98;5.88;;;;;;;22.56;84.31;98730.13;5052245;28;20276;-57
2023/06/05 09:16:43;;;;;;;10.68;6.45;;;;;;;22.61;83.82;98701.41;5052151;28;20185;-57
2023/06/05 09:19:11;;;;;;;7.93;6.15;;;;;;;22.72;82.34;98703.66;5052554;28;20654;-57
2023/06/05 09:21:36;;;;;;;8.30;6.00;;;;;;;22.96;82.25;98724.63;5073689;28;20353;-57
2023/06/05 09:24:18;;;;;;;7.07;5.68;;;;;;;23.01;80.89;98717.00;5074375;28;20642;-57
2023/06/05 09:26:49;;;;;;;9.35;5.80;;;;;;;23.05;81.29;98710.34;5074436;28;20176;-56
2023/06/05 09:29:24;;;;;;;5.88;5.28;;;;;;;23.10;80.78;98697.44;5074359;28;20235;-57
2023/06/05 09:31:50;;;;;;;7.63;5.88;;;;;;;23.28;77.59;98721.75;5073617;28;20161;-57
2023/06/05 09:34:33;;;;;;;8.50;5.25;;;;;;;23.31;77.35;98710.84;5074006;28;20703;-57
2023/06/05 09:37:00;;;;;;;5.53;4.90;;;;;;;23.46;78.26;98704.63;5074295;28;20172;-57
2023/06/05 09:39:27;;;;;;;5.55;4.65;;;;;;;23.36;76.45;98668.91;5074171;28;20269;-57
2023/06/05 09:41:54;;;;;;;9.50;5.05;;;;;;;23.38;77.09;98674.81;5074088;28;20175;-56
2023/06/05 09:44:21;;;;;;;7.28;5.10;;;;;;;23.41;76.50;98704.31;5011882;28;20274;-56
2023/06/05 09:46:58;;;;;;;6.93;5.00;;;;;;;23.51;76.90;98686.41;5011990;28;20721;-57
2023/06/05 09:49:52;;;;;;;5.82;4.30;;;;;;;23.83;73.55;98701.13;5011924;28;20252;-57
2023/06/05 09:52:18;;;;;;;5.18;4.35;;;;;;;23.97;72.51;98692.41;5008947;28;20191;-57
2023/06/05 09:54:45;;;;;;;7.45;4.13;;;;;;;23.95;70.34;98695.22;5011755;28;20554;-57
2023/06/05 09:57:12;;;;;;;6.13;4.43;;;;;;;23.85;71.42;98673.50;5011792;28;20179;-57
2023/06/05 09:59:47;;;;;;;7.30;4.25;;;;;;;23.92;71.21;98670.97;5011827;28;20194;-57
2023/06/05 10:02:17;;;;;;;4.55;4.15;;;;;;;24.02;71.36;98663.59;5004688;28;20174;-57
2023/06/05 10:04:47;;;;;;;11.45;4.75;;;;;;;24.21;72.33;98669.94;5011554;28;20270;-56
2023/06/05 10:07:15;;;;;;;6.15;3.78;;;;;;;24.49;70.43;98668.25;5011616;28;20175;-57
2023/06/05 10:09:41;;;;;;;8.38;3.78;;;;;;;24.48;69.70;98661.34;5011473;28;20260;-57
2023/06/05 10:12:08;;;;;;;4.78;4.25;;;;;;;24.60;68.58;98665.16;5011443;28;20189;-57
2023/06/05 10:14:40;;;;;;;4.43;3.45;;;;;;;24.67;70.01;98676.63;5019259;28;20221;-56
2023/06/05 10:17:05;;;;;;;4.45;4.05;;;;;;;24.83;69.02;98671.13;5073131;28;20161;-56
2023/06/05 10:19:32;;;;;;;4.45;3.70;;;;;;;25.00;69.25;98672.50;5011156;28;20297;-57
2023/06/05 10:21:57;;;;;;;4.20;3.50;;;;;;;25.07;69.04;98646.09;5011292;28;20183;-57
2023/06/05 10:24:35;;;;;;;12.73;3.95;;;;;;;25.33;66.04;98676.31;5011265;28;20201;-56
2023/06/05 10:27:10;;;;;;;8.90;3.53;;;;;;;25.37;65.57;98680.19;5011123;28;20186;-56
2023/06/05 10:30:16;;;;;;;4.20;3.15;;;;;;;25.34;66.19;98679.75;4991171;28;20210;-57
2023/06/05 10:33:10;;;;;;;5.05;3.45;;;;;;;25.32;64.64;98672.00;4991381;28;20267;-57
2023/06/05 10:35:45;;;;;;;6.80;2.85;;;;;;;25.44;65.86;98675.78;4991547;28;20231;-57
2023/06/05 10:38:17;;;;;;;5.30;3.05;;;;;;;25.50;65.18;98666.25;4991457;28;20171;-56
2023/06/05 10:40:47;;;;;;;3.63;3.08;;;;;;;25.40;64.51;98636.59;4991397;28;20183;-56
2023/06/05 10:43:47;;;;;;;3.42;2.78;;;;;;;25.74;62.12;98658.66;4991256;28;20250;-57
2023/06/05 10:46:28;;;;;;;5.05;3.28;;;;;;;25.84;62.28;98661.78;4991351;28;20191;-57
2023/06/05 10:49:19;;;;;;;6.45;3.03;;;;;;;26.19;61.03;98665.28;4991420;28;20190;-57
2023/06/05 10:51:47;;;;;;;3.13;2.90;;;;;;;25.95;59.35;98636.59;5030481;28;20656;-57
2023/06/05 10:54:21;;;;;;;4.68;2.83;;;;;;;26.15;58.80;98666.66;5030437;28;20257;-57
2023/06/05 10:56:59;;;;;;;8.13;3.10;;;;;;;26.18;58.91;98659.13;5030440;28;20181;-57
2023/06/05 10:59:33;;;;;;;3.58;2.60;;;;;;;26.01;56.74;98652.50;5011008;28;20193;-57
2023/06/05 11:02:08;;;;;;;3.60;2.38;;;;;;;26.00;57.18;98642.94;5050200;28;20559;-57
2023/06/05 11:04:43;;;;;;;5.38;2.60;;;;;;;26.12;57.18;98659.13;5050227;28;20681;-57
2023/06/05 11:07:16;;;;;;;4.75;2.63;;;;;;;26.11;55.84;98650.34;5050194;28;20191;-57
2023/06/05 11:10:06;;;;;;;3.70;2.10;;;;;;;26.14;56.54;98649.94;5050068;28;20216;-57
2023/06/05 11:12:43;;;;;;;5.07;2.70;;;;;;;26.33;55.16;98646.56;5050092;28;20192;-57
2023/06/05 11:15:11;;;;;;;6.57;2.35;;;;;;;26.49;54.59;98648.88;5050018;28;20587;-57
2023/06/05 11:17:37;;;;;;;5.47;3.03;;;;;;;26.46;53.55;98649.25;5050033;28;20721;-57
2023/06/05 11:20:09;;;;;;;4.03;2.78;;;;;;;26.68;55.79;98645.47;5050012;28;20331;-57
2023/06/05 11:22:57;;;;;;;3.35;2.60;;;;;;;27.07;51.14;98650.84;5049993;28;20185;-57
2023/06/05 11:25:30;;;;;;;4.65;2.42;;;;;;;27.33;50.95;98644.72;5049760;28;20185;-57
2023/06/05 11:28:01;;;;;;;6.43;2.58;;;;;;;27.46;50.81;98645.53;5049901;28;20169;-57
2023/06/05 11:30:32;;;;;;;3.92;2.47;;;;;;;27.44;48.89;98621.03;5057322;28;20694;-56
2023/06/05 11:33:06;;;;;;;2.63;2.42;;;;;;;27.49;49.32;98615.91;5072259;28;20169;-57
2023/06/05 11:35:32;;;;;;;5.15;2.38;;;;;;;27.59;49.89;98645.53;5072220;28;20175;-57
2023/06/05 11:38:17;;;;;;;6.53;2.60;;;;;;;27.81;48.22;98649.63;5072119;28;20180;-57
2023/06/05 11:40:44;;;;;;;3.25;2.67;;;;;;;27.75;47.16;98613.19;5072128;28;20229;-57
2023/06/05 11:43:15;;;;;;;6.90;2.45;;;;;;;28.15;46.82;98641.34;5072044;28;20176;-57
2023/06/05 11:45:42;;;;;;;5.43;2.33;;;;;;;28.12;46.19;98636.44;5072073;28;20247;-57
2023/06/05 11:48:10;;;;;;;2.72;2.30;;;;;;;28.01;47.01;98639.75;5071965;28;20177;-57
2023/06/05 11:50:36;;;;;;;5.97;2.60;;;;;;;27.93;46.36;98636.50;5071863;28;20188;-57
2023/06/05 11:53:05;;;;;;;7.32;2.08;;;;;;;27.68;47.22;98633.66;5009797;28;20243;-57
2023/06/05 11:55:42;;;;;;;3.45;2.53;;;;;;;27.69;46.29;98629.97;5011331;28;20190;-57
2023/06/05 11:58:08;;;;;;;6.43;2.30;;;;;;;27.77;44.71;98631.59;5014001;28;20193;-57
2023/06/05 12:00:34;;;;;;;3.47;2.63;;;;;;;27.98;44.56;98624.19;5013887;28;20189;-57
2023/06/05 12:03:00;;;;;;;2.58;2.38;;;;;;;28.11;43.75;98605.50;5013781;28;20198;-58
2023/06/05 12:05:25;;;;;;;2.80;2.33;;;;;;;28.47;43.39;98632.44;5013845;28;20182;-57
2023/06/05 12:07:51;;;;;;;4.38;2.33;;;;;;;28.51;43.33;98630.16;5013799;28;20277;-57
2023/06/05 12:10:16;;;;;;;7.40;2.30;;;;;;;28.50;43.16;98613.34;5013666;28;20334;-57
2023/06/05 12:12:54;;;;;;;2.53;2.15;;;;;;;28.38;42.43;98615.06;5013744;28;20657;-58
2023/06/05 12:15:21;;;;;;;3.20;2.00;;;;;;;28.44;43.12;98640.81;5013645;28;20221;-58
2023/06/05 12:17:50;;;;;;;3.05;2.45;;;;;;;28.30;42.97;98649.88;5013603;28;20209;-58
2023/06/05 12:20:16;;;;;;;3.00;2.17;;;;;;;28.34;42.95;98634.31;5013555;28;20190;-57
2023/06/05 12:22:42;;;;;;;5.05;2.33;;;;;;;28.29;43.96;98626.94;5013539;28;20187;-57
2023/06/05 12:25:18;;;;;;;3.25;2.30;;;;;;;28.45;42.11;98610.50;5072820;28;20665;-57
2023/06/05 12:27:45;;;;;;;3.28;2.25;;;;;;;28.37;42.31;98616.09;5013265;28;20749;-57
2023/06/05 12:30:11;;;;;;;3.60;2.10;;;;;;;28.35;42.19;98599.50;4993368;28;20643;-57
2023/06/05 12:32:39;;;;;;;2.83;2.47;;;;;;;28.57;43.25;98629.31;4993725;28;20661;-57
2023/06/05 12:35:05;;;;;;;3.88;2.42;;;;;;;28.57;42.78;98611.47;4993651;28;20308;-57
2023/06/05 12:37:37;;;;;;;5.72;2.10;;;;;;;28.63;42.43;98613.25;4993505;28;20295;-57
2023/06/05 12:40:08;;;;;;;5.72;2.40;;;;;;;28.90;42.58;98630.72;4993591;28;20740;-57
2023/06/05 12:42:37;;;;;;;5.10;2.50;;;;;;;28.90;41.46;98614.72;4993577;28;20286;-57
2023/06/05 12:45:06;;;;;;;2.10;1.80;;;;;;;28.90;41.13;98614.72;4993421;28;20292;-57
2023/06/05 12:47:34;;;;;;;7.63;2.35;;;;;;;29.01;41.43;98611.41;4993366;28;20194;-57
2023/06/05 12:49:59;;;;;;;3.38;2.40;;;;;;;29.14;39.74;98627.28;4993357;28;20214;-58
2023/06/05 12:52:25;;;;;;;4.30;2.70;;;;;;;29.46;40.54;98626.22;4993257;28;20194;-58
2023/06/05 12:54:54;;;;;;;3.47;2.30;;;;;;;29.53;39.60;98616.31;4993314;28;20277;-58
2023/06/05 12:57:20;;;;;;;5.07;2.17;;;;;;;29.42;39.68;98614.34;4993259;28;20187;-58
2023/06/05 12:59:50;;;;;;;2.40;2.20;;;;;;;29.61;39.36;98597.34;5049028;28;20189;-58
2023/06/05 13:02:16;;;;;;;2.50;2.30;;;;;;;29.79;38.53;98616.03;5073530;28;20193;-58
2023/06/05 13:04:41;;;;;;;4.70;2.83;;;;;;;29.76;38.77;98619.16;5074783;28;20189;-57
2023/06/05 13:07:07;;;;;;;5.18;2.50;;;;;;;29.88;38.88;98614.72;5074778;28;20173;-57
2023/06/05 13:09:33;;;;;;;6.70;2.38;;;;;;;29.87;38.79;98605.09;5074654;28;20193;-57
2023/06/05 13:11:59;;;;;;;4.70;2.60;;;;;;;29.80;38.19;98593.66;5074727;28;20226;-57
2023/06/05 13:14:25;;;;;;;5.25;2.42;;;;;;;30.22;38.19;98614.13;5074648;28;20263;-57
2023/06/05 13:16:51;;;;;;;6.35;2.83;;;;;;;30.02;38.11;98604.72;5032237;28;20189;-57
2023/06/05 13:19:16;;;;;;;2.72;2.42;;;;;;;29.89;37.98;98611.00;5032252;28;20194;-58
2023/06/05 13:21:42;;;;;;;6.00;2.20;;;;;;;29.93;38.01;98595.34;5032218;28;20201;-58
2023/06/05 13:24:07;;;;;;;5.75;2.80;;;;;;;29.94;38.42;98613.81;5012260;28;20650;-58
2023/06/05 13:26:33;;;;;;;3.83;2.40;;;;;;;30.20;38.19;98612.72;5012313;28;20186;-57
2023/06/05 13:28:58;;;;;;;4.35;2.13;;;;;;;30.00;37.46;98610.25;5012227;28;20179;-57
2023/06/05 13:31:24;;;;;;;10.32;2.60;;;;;;;29.85;38.13;98580.44;5012012;28;20260;-57
2023/06/05 13:33:50;;;;;;;5.18;2.30;;;;;;;29.85;38.10;98587.66;5012146;28;20191;-57
2023/06/05 13:36:16;;;;;;;4.53;2.10;;;;;;;30.15;37.47;98610.72;5012121;28;20252;-57
2023/06/05 13:38:42;;;;;;;3.00;2.22;;;;;;;30.09;37.62;98603.59;5012080;28;20276;-57
2023/06/05 13:41:08;;;;;;;4.00;2.90;;;;;;;30.30;37.40;98618.34;5011977;28;20218;-58
2023/06/05 13:43:34;;;;;;;3.90;2.50;;;;;;;30.53;36.98;98613.09;5011983;28;20272;-58
2023/06/05 13:46:00;;;;;;;5.93;2.60;;;;;;;30.26;37.79;98601.94;5011926;28;20218;-58
2023/06/05 13:48:26;;;;;;;6.43;2.58;;;;;;;30.11;38.05;98598.88;5026317;28;20189;-58
2023/06/05 13:50:51;;;;;;;6.30;3.13;;;;;;;30.20;38.27;98612.72;5031626;28;20222;-58
2023/06/05 13:53:17;;;;;;;4.65;2.38;;;;;;;30.40;37.89;98605.25;5031634;28;20321;-58
2023/06/05 13:55:42;;;;;;;4.68;2.50;;;;;;;30.43;36.95;98578.91;5063187;28;20557;-57
2023/06/05 13:58:09;;;;;;;4.18;2.53;;;;;;;30.78;37.54;98603.13;5073526;28;20183;-57
2023/06/05 14:00:34;;;;;;;8.85;2.88;;;;;;;30.50;37.45;98587.66;5073679;28;20656;-57
2023/06/05 14:03:00;;;;;;;3.58;2.35;;;;;;;30.70;37.16;98606.94;5073314;28;20263;-58
2023/06/05 14:05:25;;;;;;;7.13;2.70;;;;;;;30.33;37.88;98580.50;5073280;28;20177;-57
2023/06/05 14:07:52;;;;;;;4.75;2.35;;;;;;;30.25;37.99;98589.63;5073504;28;20591;-57
2023/06/05 14:10:20;;;;;;;4.63;3.10;;;;;;;30.19;38.36;98598.56;5073223;28;20256;-57
2023/06/05 14:12:45;;;;;;;5.63;3.38;;;;;;;30.10;38.13;98569.72;5073201;28;20272;-57
2023/06/05 14:15:11;;;;;;;2.78;2.40;;;;;;;30.37;38.40;98590.50;5072980;28;20263;-57
2023/06/05 14:17:36;;;;;;;5.68;2.50;;;;;;;30.05;38.81;98561.53;5072590;28;20180;-57
2023/06/05 14:20:02;;;;;;;4.75;1.90;;;;;;;30.05;39.35;98573.03;5072109;28;20172;-58
2023/06/05 14:22:28;;;;;;;6.65;2.47;;;;;;;29.66;39.90;98554.81;5073292;28;20244;-58
2023/06/05 14:24:54;;;;;;;5.57;2.78;;;;;;;29.81;39.28;98576.63;5073053;28;20173;-58
2023/06/05 14:27:19;;;;;;;3.13;2.55;;;;;;;30.14;39.25;98563.69;5072677;28;20169;-55
2023/06/05 14:29:45;;;;;;;6.72;2.70;;;;;;;30.62;38.89;98575.16;5072784;28;20212;-56
2023/06/05 14:32:10;;;;;;;6.05;2.30;;;;;;;30.84;38.00;98567.47;5072820;28;20175;-56
2023/06/05 14:34:36;;;;;;;2.72;2.20;;;;;;;31.12;37.82;98575.63;5072979;28;20547;-56
2023/06/05 14:37:02;;;;;;;4.63;2.22;;;;;;;31.20;37.04;98586.84;5072915;28;20214;-57
2023/06/05 14:39:27;;;;;;;5.43;2.28;;;;;;;31.00;36.22;98583.63;5072779;28;20543;-57
2023/06/05 14:41:53;;;;;;;3.75;2.00;;;;;;;30.79;35.20;98560.09;5072392;28;20173;-57
2023/06/05 14:44:18;;;;;;;3.03;2.20;;;;;;;30.82;34.81;98559.66;5072199;28;20172;-57
2023/06/05 14:46:44;;;;;;;3.88;2.10;;;;;;;30.83;34.08;98568.50;5072598;28;20180;-58
2023/06/05 14:49:10;;;;;;;4.22;1.80;;;;;;;30.77;33.98;98551.50;5072631;28;20240;-58
2023/06/05 14:51:36;;;;;;;3.88;1.85;;;;;;;30.74;34.09;98562.69;5072724;28;20215;-58
2023/06/05 14:54:01;;;;;;;3.28;1.92;;;;;;;30.20;35.05;98552.13;5072567;28;20649;-57
2023/06/05 14:56:27;;;;;;;2.63;2.20;;;;;;;29.80;35.63;98564.28;5072573;28;20188;-58
2023/06/05 14:58:53;;;;;;;3.67;2.53;;;;;;;29.27;36.12;98562.38;5072286;28;20181;-58
2023/06/05 15:01:18;;;;;;;2.40;2.03;;;;;;;29.08;36.40;98564.19;5072318;28;20220;-57
2023/06/05 15:03:45;;;;;;;3.60;2.10;;;;;;;28.38;36.35;98556.47;5072406;28;20211;-58
2023/06/05 15:06:10;;;;;;;2.42;2.17;;;;;;;27.61;37.44;98528.31;5072544;28;20173;-57
2023/06/05 15:08:36;;;;;;;4.78;2.15;;;;;;;27.30;37.79;98550.28;5072494;28;20513;-57
2023/06/05 15:11:01;;;;;;;2.33;2.08;;;;;;;26.95;38.14;98543.53;5072382;28;20200;-57
2023/06/05 15:13:26;;;;;;;3.40;2.10;;;;;;;26.76;38.93;98539.06;5072732;28;20177;-57
2023/06/05 15:15:52;;;;;;;5.78;2.40;;;;;;;26.74;38.54;98541.09;5072152;28;20180;-58
2023/06/05 15:18:17;;;;;;;5.45;2.60;;;;;;;26.66;39.43;98541.28;5072405;28;20664;-58
2023/06/05 15:20:43;;;;;;;6.18;2.88;;;;;;;26.74;38.58;98529.66;5072642;28;20176;-57
2023/06/05 15:23:08;;;;;;;4.95;2.20;;;;;;;26.78;38.43;98560.94;5071779;28;20232;-58
2023/06/05 15:25:34;;;;;;;3.35;2.83;;;;;;;26.65;38.45;98560.09;5029780;28;20185;-57
2023/06/05 15:28:01;;;;;;;4.97;3.00;;;;;;;26.59;38.94;98548.44;5029927;28;20232;-57
2023/06/05 15:30:26;;;;;;;4.22;2.35;;;;;;;26.57;38.79;98555.78;5029006;28;20233;-57
2023/06/05 15:32:51;;;;;;;2.45;2.25;;;;;;;26.45;38.51;98530.84;5029909;28;20174;-58
2023/06/05 15:35:17;;;;;;;4.10;2.20;;;;;;;26.50;38.80;98540.84;5029873;28;20538;-57
2023/06/05 15:37:43;;;;;;;3.38;2.08;;;;;;;26.38;39.06;98521.22;5029890;28;20169;-57
2023/06/05 15:40:09;;;;;;;2.72;2.50;;;;;;;26.48;38.77;98522.44;5043863;28;20201;-57
2023/06/05 15:42:36;;;;;;;3.05;2.20;;;;;;;26.53;38.68;98551.88;5049662;28;20185;-57
2023/06/05 15:45:12;;;;;;;6.25;2.20;;;;;;;26.54;38.56;98547.41;5049502;28;20243;-57
2023/06/05 15:47:39;;;;;;;5.85;2.30;;;;;;;26.46;39.00;98542.25;5049563;28;20184;-57
2023/06/05 15:50:05;;;;;;;4.50;2.10;;;;;;;26.34;39.73;98526.13;5009601;28;20274;-57
2023/06/05 15:52:32;;;;;;;3.85;2.30;;;;;;;26.35;40.19;98533.06;5009660;28;20560;-57
2023/06/05 15:54:58;;;;;;;3.72;2.45;;;;;;;26.35;39.72;98532.25;5009722;28;20194;-57
2023/06/05 15:57:23;;;;;;;3.65;2.35;;;;;;;26.38;40.29;98543.28;4987018;28;20195;-57
2023/06/05 15:59:49;;;;;;;5.10;2.33;;;;;;;26.13;40.41;98513.00;4990068;28;20794;-57
2023/06/05 16:02:15;;;;;;;3.92;2.33;;;;;;;25.89;40.73;98513.50;4951233;29;20659;-57
2023/06/05 16:04:40;;;;;;;3.90;2.60;;;;;;;26.02;40.90;98531.34;4951404;29;20193;-57
2023/06/05 16:07:06;;;;;;;3.83;2.53;;;;;;;26.06;41.02;98533.38;4951359;29;20275;-57
2023/06/05 16:09:31;;;;;;;5.43;2.35;;;;;;;25.80;40.19;98522.66;4951228;29;20224;-57
2023/06/05 16:11:57;;;;;;;3.90;2.47;;;;;;;25.96;40.32;98540.88;4951534;29;20196;-57
2023/06/05 16:14:25;;;;;;;3.17;2.10;;;;;;;25.84;40.20;98533.69;4951543;29;20279;-57
2023/06/05 16:16:50;;;;;;;2.03;1.90;;;;;;;25.67;40.35;98527.09;4951373;29;20641;-57
2023/06/05 16:19:16;;;;;;;3.03;2.50;;;;;;;25.78;38.47;98547.75;4951544;29;20275;-57
2023/06/05 16:21:42;;;;;;;3.75;2.08;;;;;;;25.64;38.14;98517.69;4989091;28;20186;-57
2023/06/05 16:24:07;;;;;;;2.25;1.95;;;;;;;25.55;38.56;98524.16;5009719;28;20283;-57
2023/06/05 16:26:33;;;;;;;2.90;2.05;;;;;;;25.46;37.96;98543.91;4989857;28;20183;-57
2023/06/05 16:28:59;;;;;;;2.33;2.15;;;;;;;24.99;37.19;98521.75;5019229;28;20528;-57
2023/06/05 16:31:24;;;;;;;4.93;1.83;;;;;;;24.81;36.94;98527.53;5029338;28;20202;-57
2023/06/05 16:33:50;;;;;;;2.60;2.05;;;;;;;24.67;34.45;98546.16;5044182;28;20228;-57
2023/06/05 16:36:15;;;;;;;2.30;2.10;;;;;;;24.47;35.36;98521.28;5049173;28;20209;-57
2023/06/05 16:38:41;;;;;;;5.10;1.65;;;;;;;24.54;37.49;98541.50;5049207;28;20811;-57
2023/06/05 16:41:06;;;;;;;1.83;1.73;;;;;;;24.46;39.04;98523.13;5049759;28;20185;-57
2023/06/05 16:43:31;;;;;;;2.03;1.80;;;;;;;24.24;38.72;98504.78;5052842;28;20188;-56
2023/06/05 16:45:57;;;;;;;4.55;1.90;;;;;;;24.39;40.18;98509.00;5052796;28;20767;-56
2023/06/05 16:48:22;;;;;;;3.30;2.80;;;;;;;24.33;37.22;98504.47;5052673;28;20177;-56
2023/06/05 16:50:48;;;;;;;4.10;2.55;;;;;;;24.41;35.68;98535.28;5052616;28;20193;-57
2023/06/05 16:53:16;;;;;;;2.20;2.00;;;;;;;24.13;36.13;98513.22;5052627;28;20283;-58
2023/06/05 16:55:42;;;;;;;3.85;2.40;;;;;;;24.17;35.87;98531.19;5052650;28;20208;-57
2023/06/05 16:58:08;;;;;;;4.22;2.85;;;;;;;23.94;34.80;98513.03;5068893;28;20223;-58